KFET/FET METAR and TAF weather

Enter ICAO airport designator
Station Type Date Time Source
KFET METAR 2019/06/19 00:35 UTC NOAA

KFET 190035Z AUTO 00000KT 10SM RA SCT009 SCT048 OVC090 18/17 A2991 RMK AO2 P0001 T01780170


Station Type Date Time Source
KFET Decoded METAR 2019/06/19 00:35 UTC NOAA

Fremont Municipal Airport, NE, United States (KFET) 41-27N 096-31W
Jun 18, 2019 - 08:35 PM EDT / 2019.06.19 0035 UTC
Wind: Calm:0
Visibility: 10 mile(s):0
Sky conditions: overcast
Weather: rain
Precipitation last hour: 0.01 inches
Temperature: 64.0 F (17.8 C)
Dew Point: 62.6 F (17.0 C)
Relative Humidity: 95%
Pressure (altimeter): 29.91 in. Hg (1012 hPa)
ob: KFET 190035Z AUTO 00000KT 10SM RA SCT009 SCT048 OVC090 18/17 A2991 RMK AO2 P0001 T01780170
cycle: 0

Station Type Date Time Source
KFET TAF UTC NOAA

Error!

Example: see airport list